sensor_id;sensor_type;location;lat;lon;timestamp;temperature;humidity
41985;DHT22;28319;48.116;10.818;2022-10-31T00:04:15;12.20;99.90
41985;DHT22;28319;48.116;10.818;2022-10-31T00:09:17;12.30;99.90
41985;DHT22;28319;48.116;10.818;2022-10-31T00:14:21;12.30;99.90
41985;DHT22;28319;48.116;10.818;2022-10-31T00:19:23;12.10;99.90
41985;DHT22;28319;48.116;10.818;2022-10-31T00:24:25;12.10;99.90
41985;DHT22;28319;48.116;10.818;2022-10-31T00:29:29;12.10;99.90
41985;DHT22;28319;48.116;10.818;2022-10-31T00:34:31;12.20;99.90
41985;DHT22;28319;48.116;10.818;2022-10-31T00:39:33;12.10;99.90
41985;DHT22;28319;48.116;10.818;2022-10-31T00:44:37;12.00;99.90
41985;DHT22;28319;48.116;10.818;2022-10-31T00:49:39;11.90;99.90
41985;DHT22;28319;48.116;10.818;2022-10-31T00:54:41;11.90;99.90
41985;DHT22;28319;48.116;10.818;2022-10-31T00:59:44;11.90;99.90
41985;DHT22;28319;48.116;10.818;2022-10-31T01:04:47;11.80;99.90
41985;DHT22;28319;48.116;10.818;2022-10-31T01:09:49;11.70;99.90
41985;DHT22;28319;48.116;10.818;2022-10-31T01:14:52;11.70;99.90
41985;DHT22;28319;48.116;10.818;2022-10-31T01:19:54;11.70;99.90
41985;DHT22;28319;48.116;10.818;2022-10-31T01:24:56;11.70;99.90
41985;DHT22;28319;48.116;10.818;2022-10-31T01:29:59;11.70;99.90
41985;DHT22;28319;48.116;10.818;2022-10-31T01:35:02;11.80;99.90
41985;DHT22;28319;48.116;10.818;2022-10-31T01:40:05;11.80;99.90
41985;DHT22;28319;48.116;10.818;2022-10-31T01:45:11;11.70;99.90
41985;DHT22;28319;48.116;10.818;2022-10-31T01:50:26;11.80;99.90
41985;DHT22;28319;48.116;10.818;2022-10-31T01:55:32;11.60;99.90
41985;DHT22;28319;48.116;10.818;2022-10-31T02:00:36;11.50;99.90
41985;DHT22;28319;48.116;10.818;2022-10-31T02:05:39;11.50;99.90
41985;DHT22;28319;48.116;10.818;2022-10-31T02:10:43;11.50;99.90
41985;DHT22;28319;48.116;10.818;2022-10-31T02:15:51;11.40;99.90
41985;DHT22;28319;48.116;10.818;2022-10-31T02:20:59;11.40;99.90
41985;DHT22;28319;48.116;10.818;2022-10-31T02:26:19;11.40;99.90
41985;DHT22;28319;48.116;10.818;2022-10-31T02:31:33;11.30;99.90
41985;DHT22;28319;48.116;10.818;2022-10-31T02:36:42;11.30;99.90
41985;DHT22;28319;48.116;10.818;2022-10-31T02:41:48;11.30;99.90
41985;DHT22;28319;48.116;10.818;2022-10-31T02:46:57;11.30;99.90
41985;DHT22;28319;48.116;10.818;2022-10-31T02:52:00;11.20;99.90
41985;DHT22;28319;48.116;10.818;2022-10-31T02:57:05;11.20;99.90
41985;DHT22;28319;48.116;10.818;2022-10-31T03:02:24;11.10;99.90
41985;DHT22;28319;48.116;10.818;2022-10-31T03:07:33;11.10;99.90
41985;DHT22;28319;48.116;10.818;2022-10-31T03:12:40;11.00;99.90
41985;DHT22;28319;48.116;10.818;2022-10-31T03:17:53;11.00;99.90
41985;DHT22;28319;48.116;10.818;2022-10-31T03:22:57;11.60;99.90
41985;DHT22;28319;48.116;10.818;2022-10-31T03:28:02;11.00;99.90
41985;DHT22;28319;48.116;10.818;2022-10-31T03:33:09;11.00;99.90
41985;DHT22;28319;48.116;10.818;2022-10-31T03:38:13;10.90;99.90
41985;DHT22;28319;48.116;10.818;2022-10-31T03:43:18;10.90;99.90
41985;DHT22;28319;48.116;10.818;2022-10-31T03:48:23;10.80;99.90
41985;DHT22;28319;48.116;10.818;2022-10-31T03:53:31;10.80;99.90
41985;DHT22;28319;48.116;10.818;2022-10-31T03:58:36;10.60;99.90
41985;DHT22;28319;48.116;10.818;2022-10-31T04:03:41;10.70;99.90
41985;DHT22;28319;48.116;10.818;2022-10-31T04:08:49;10.50;99.90
41985;DHT22;28319;48.116;10.818;2022-10-31T04:13:53;10.60;99.90
41985;DHT22;28319;48.116;10.818;2022-10-31T04:18:58;10.40;99.90
41985;DHT22;28319;48.116;10.818;2022-10-31T04:24:00;10.30;99.90
41985;DHT22;28319;48.116;10.818;2022-10-31T04:29:02;10.50;99.90
41985;DHT22;28319;48.116;10.818;2022-10-31T04:34:06;10.40;99.90
41985;DHT22;28319;48.116;10.818;2022-10-31T04:39:08;10.40;99.90
41985;DHT22;28319;48.116;10.818;2022-10-31T04:44:11;10.40;99.90
41985;DHT22;28319;48.116;10.818;2022-10-31T04:49:14;10.40;99.90
41985;DHT22;28319;48.116;10.818;2022-10-31T04:54:16;10.30;99.90
41985;DHT22;28319;48.116;10.818;2022-10-31T04:59:18;10.30;99.90
41985;DHT22;28319;48.116;10.818;2022-10-31T05:04:22;10.20;99.90
41985;DHT22;28319;48.116;10.818;2022-10-31T05:09:24;10.00;99.90
41985;DHT22;28319;48.116;10.818;2022-10-31T05:14:26;10.00;99.90
41985;DHT22;28319;48.116;10.818;2022-10-31T05:19:30;9.90;99.90
41985;DHT22;28319;48.116;10.818;2022-10-31T05:24:31;9.90;99.90
41985;DHT22;28319;48.116;10.818;2022-10-31T05:29:33;9.90;99.90
41985;DHT22;28319;48.116;10.818;2022-10-31T05:34:37;10.00;99.90
41985;DHT22;28319;48.116;10.818;2022-10-31T05:39:39;10.00;99.90
41985;DHT22;28319;48.116;10.818;2022-10-31T05:44:41;9.90;99.90
41985;DHT22;28319;48.116;10.818;2022-10-31T05:49:45;9.80;99.90
41985;DHT22;28319;48.116;10.818;2022-10-31T05:54:47;9.80;99.90
41985;DHT22;28319;48.116;10.818;2022-10-31T05:59:49;9.80;99.90
41985;DHT22;28319;48.116;10.818;2022-10-31T06:04:54;9.80;99.90
41985;DHT22;28319;48.116;10.818;2022-10-31T06:09:56;9.80;99.90
41985;DHT22;28319;48.116;10.818;2022-10-31T06:14:59;9.70;99.90
41985;DHT22;28319;48.116;10.818;2022-10-31T06:20:03;9.80;99.90
41985;DHT22;28319;48.116;10.818;2022-10-31T06:25:05;9.80;99.90
41985;DHT22;28319;48.116;10.818;2022-10-31T06:30:09;9.80;99.90
41985;DHT22;28319;48.116;10.818;2022-10-31T06:35:13;9.80;99.90
41985;DHT22;28319;48.116;10.818;2022-10-31T06:40:15;9.70;99.90
41985;DHT22;28319;48.116;10.818;2022-10-31T06:45:17;9.70;99.90
41985;DHT22;28319;48.116;10.818;2022-10-31T06:50:22;9.90;99.90
41985;DHT22;28319;48.116;10.818;2022-10-31T06:55:25;9.90;99.90
41985;DHT22;28319;48.116;10.818;2022-10-31T07:00:29;9.90;99.90
41985;DHT22;28319;48.116;10.818;2022-10-31T07:05:33;9.90;99.90
41985;DHT22;28319;48.116;10.818;2022-10-31T07:10:37;10.00;99.90
41985;DHT22;28319;48.116;10.818;2022-10-31T07:15:40;10.00;99.90
41985;DHT22;28319;48.116;10.818;2022-10-31T07:20:45;10.00;99.90
41985;DHT22;28319;48.116;10.818;2022-10-31T07:25:47;10.10;99.90
41985;DHT22;28319;48.116;10.818;2022-10-31T07:30:50;10.10;99.90
41985;DHT22;28319;48.116;10.818;2022-10-31T07:35:54;10.20;99.90
41985;DHT22;28319;48.116;10.818;2022-10-31T07:40:56;10.30;99.90
41985;DHT22;28319;48.116;10.818;2022-10-31T07:45:58;10.40;99.90
41985;DHT22;28319;48.116;10.818;2022-10-31T07:51:02;10.50;99.90
41985;DHT22;28319;48.116;10.818;2022-10-31T07:56:04;10.70;99.90
41985;DHT22;28319;48.116;10.818;2022-10-31T08:01:07;10.80;99.90
41985;DHT22;28319;48.116;10.818;2022-10-31T08:06:10;10.90;99.90
41985;DHT22;28319;48.116;10.818;2022-10-31T08:11:12;11.10;99.90
41985;DHT22;28319;48.116;10.818;2022-10-31T08:16:14;11.30;99.90
41985;DHT22;28319;48.116;10.818;2022-10-31T08:21:18;11.50;99.90
41985;DHT22;28319;48.116;10.818;2022-10-31T08:26:20;11.70;99.90
41985;DHT22;28319;48.116;10.818;2022-10-31T08:31:23;12.00;99.90
41985;DHT22;28319;48.116;10.818;2022-10-31T08:36:28;12.20;99.90
41985;DHT22;28319;48.116;10.818;2022-10-31T08:41:31;12.40;99.90
41985;DHT22;28319;48.116;10.818;2022-10-31T08:46:33;12.70;99.90
41985;DHT22;28319;48.116;10.818;2022-10-31T08:51:37;13.00;99.90
41985;DHT22;28319;48.116;10.818;2022-10-31T08:56:39;13.30;99.90
41985;DHT22;28319;48.116;10.818;2022-10-31T09:01:41;13.70;99.90
41985;DHT22;28319;48.116;10.818;2022-10-31T09:06:45;14.00;99.90
41985;DHT22;28319;48.116;10.818;2022-10-31T09:11:47;14.40;99.90
41985;DHT22;28319;48.116;10.818;2022-10-31T09:16:51;14.70;99.90
41985;DHT22;28319;48.116;10.818;2022-10-31T09:21:54;15.00;99.90
41985;DHT22;28319;48.116;10.818;2022-10-31T09:26:58;15.20;99.90
41985;DHT22;28319;48.116;10.818;2022-10-31T09:32:00;15.50;99.90
41985;DHT22;28319;48.116;10.818;2022-10-31T09:37:03;15.70;99.90
41985;DHT22;28319;48.116;10.818;2022-10-31T09:42:26;15.90;99.90
41985;DHT22;28319;48.116;10.818;2022-10-31T09:47:41;16.00;99.90
41985;DHT22;28319;48.116;10.818;2022-10-31T09:52:53;16.00;99.90
41985;DHT22;28319;48.116;10.818;2022-10-31T09:57:59;16.00;99.90
41985;DHT22;28319;48.116;10.818;2022-10-31T10:03:10;16.10;99.90
41985;DHT22;28319;48.116;10.818;2022-10-31T10:08:18;16.30;99.90
41985;DHT22;28319;48.116;10.818;2022-10-31T10:13:46;16.40;99.90
41985;DHT22;28319;48.116;10.818;2022-10-31T10:19:04;16.40;99.90
41985;DHT22;28319;48.116;10.818;2022-10-31T10:24:22;16.60;99.90
41985;DHT22;28319;48.116;10.818;2022-10-31T10:29:34;16.70;99.90
41985;DHT22;28319;48.116;10.818;2022-10-31T10:34:43;16.80;99.90
41985;DHT22;28319;48.116;10.818;2022-10-31T10:39:51;16.90;99.90
41985;DHT22;28319;48.116;10.818;2022-10-31T10:44:55;17.10;99.90
41985;DHT22;28319;48.116;10.818;2022-10-31T10:50:17;17.40;99.90
41985;DHT22;28319;48.116;10.818;2022-10-31T10:55:29;17.60;99.90
41985;DHT22;28319;48.116;10.818;2022-10-31T11:00:37;17.80;99.90
41985;DHT22;28319;48.116;10.818;2022-10-31T11:05:43;17.80;99.90
41985;DHT22;28319;48.116;10.818;2022-10-31T11:10:56;17.80;99.90
41985;DHT22;28319;48.116;10.818;2022-10-31T11:16:01;17.90;99.90
41985;DHT22;28319;48.116;10.818;2022-10-31T11:21:05;17.80;99.90
41985;DHT22;28319;48.116;10.818;2022-10-31T11:26:19;17.80;99.90
41985;DHT22;28319;48.116;10.818;2022-10-31T11:31:21;17.70;99.90
41985;DHT22;28319;48.116;10.818;2022-10-31T11:36:25;17.80;99.90
41985;DHT22;28319;48.116;10.818;2022-10-31T11:41:31;17.80;99.90
41985;DHT22;28319;48.116;10.818;2022-10-31T11:46:37;18.20;99.90
41985;DHT22;28319;48.116;10.818;2022-10-31T11:51:40;18.40;99.90
41985;DHT22;28319;48.116;10.818;2022-10-31T11:56:43;18.80;99.90
41985;DHT22;28319;48.116;10.818;2022-10-31T12:01:48;19.10;99.90
41985;DHT22;28319;48.116;10.818;2022-10-31T12:06:51;19.10;99.90
41985;DHT22;28319;48.116;10.818;2022-10-31T12:12:16;19.10;99.90
41985;DHT22;28319;48.116;10.818;2022-10-31T12:17:23;19.20;99.90
41985;DHT22;28319;48.116;10.818;2022-10-31T12:22:35;19.00;99.90
41985;DHT22;28319;48.116;10.818;2022-10-31T12:27:55;18.70;99.90
41985;DHT22;28319;48.116;10.818;2022-10-31T12:33:12;18.70;99.90
41985;DHT22;28319;48.116;10.818;2022-10-31T12:38:38;18.80;99.90
41985;DHT22;28319;48.116;10.818;2022-10-31T12:43:48;18.50;99.90
41985;DHT22;28319;48.116;10.818;2022-10-31T12:49:16;18.40;99.90
41985;DHT22;28319;48.116;10.818;2022-10-31T12:54:38;18.40;99.90
41985;DHT22;28319;48.116;10.818;2022-10-31T12:59:45;18.30;99.90
41985;DHT22;28319;48.116;10.818;2022-10-31T13:04:51;18.20;99.90
41985;DHT22;28319;48.116;10.818;2022-10-31T13:09:58;18.10;99.90
41985;DHT22;28319;48.116;10.818;2022-10-31T13:15:05;18.50;99.90
41985;DHT22;28319;48.116;10.818;2022-10-31T13:20:21;18.70;99.90
41985;DHT22;28319;48.116;10.818;2022-10-31T13:25:25;19.30;99.90
41985;DHT22;28319;48.116;10.818;2022-10-31T13:30:33;19.30;99.90
41985;DHT22;28319;48.116;10.818;2022-10-31T13:35:40;19.40;99.90
41985;DHT22;28319;48.116;10.818;2022-10-31T13:40:50;19.20;99.90
41985;DHT22;28319;48.116;10.818;2022-10-31T13:45:55;18.90;99.90
41985;DHT22;28319;48.116;10.818;2022-10-31T13:50:59;18.80;99.90
41985;DHT22;28319;48.116;10.818;2022-10-31T13:56:09;18.70;99.90
41985;DHT22;28319;48.116;10.818;2022-10-31T14:01:19;18.90;99.90
41985;DHT22;28319;48.116;10.818;2022-10-31T14:06:23;18.80;99.90
41985;DHT22;28319;48.116;10.818;2022-10-31T14:11:36;18.80;99.90
41985;DHT22;28319;48.116;10.818;2022-10-31T14:16:41;18.80;99.90
41985;DHT22;28319;48.116;10.818;2022-10-31T14:21:45;18.70;99.90
41985;DHT22;28319;48.116;10.818;2022-10-31T14:26:55;18.70;99.90
41985;DHT22;28319;48.116;10.818;2022-10-31T14:32:03;18.70;99.90
41985;DHT22;28319;48.116;10.818;2022-10-31T14:37:30;18.50;99.90
41985;DHT22;28319;48.116;10.818;2022-10-31T14:42:56;18.60;99.90
41985;DHT22;28319;48.116;10.818;2022-10-31T14:48:11;18.70;99.90
41985;DHT22;28319;48.116;10.818;2022-10-31T14:53:19;18.60;99.90
41985;DHT22;28319;48.116;10.818;2022-10-31T14:58:24;18.70;99.90
41985;DHT22;28319;48.116;10.818;2022-10-31T15:03:31;18.80;99.90
41985;DHT22;28319;48.116;10.818;2022-10-31T15:08:38;18.60;99.90
41985;DHT22;28319;48.116;10.818;2022-10-31T15:13:45;18.70;99.90
41985;DHT22;28319;48.116;10.818;2022-10-31T15:18:55;18.60;99.90
41985;DHT22;28319;48.116;10.818;2022-10-31T15:23:59;18.60;99.90
41985;DHT22;28319;48.116;10.818;2022-10-31T15:29:03;18.60;99.90
41985;DHT22;28319;48.116;10.818;2022-10-31T15:34:14;18.40;99.90
41985;DHT22;28319;48.116;10.818;2022-10-31T15:39:19;18.20;99.90
41985;DHT22;28319;48.116;10.818;2022-10-31T15:44:24;18.00;99.90
41985;DHT22;28319;48.116;10.818;2022-10-31T15:49:33;17.90;99.90
41985;DHT22;28319;48.116;10.818;2022-10-31T15:54:36;17.70;99.90
41985;DHT22;28319;48.116;10.818;2022-10-31T15:59:48;17.60;99.90
41985;DHT22;28319;48.116;10.818;2022-10-31T16:04:54;17.40;99.90
41985;DHT22;28319;48.116;10.818;2022-10-31T16:09:57;17.30;99.90
41985;DHT22;28319;48.116;10.818;2022-10-31T16:15:01;17.20;99.90
41985;DHT22;28319;48.116;10.818;2022-10-31T16:20:07;17.10;99.90
41985;DHT22;28319;48.116;10.818;2022-10-31T16:25:11;17.20;99.90
41985;DHT22;28319;48.116;10.818;2022-10-31T16:30:29;17.30;99.90
41985;DHT22;28319;48.116;10.818;2022-10-31T16:35:35;17.30;99.90
41985;DHT22;28319;48.116;10.818;2022-10-31T16:40:38;17.30;99.90
41985;DHT22;28319;48.116;10.818;2022-10-31T16:45:43;17.10;99.90
41985;DHT22;28319;48.116;10.818;2022-10-31T16:50:47;17.00;99.90
41985;DHT22;28319;48.116;10.818;2022-10-31T16:55:53;17.00;99.90
41985;DHT22;28319;48.116;10.818;2022-10-31T17:00:57;16.80;99.90
41985;DHT22;28319;48.116;10.818;2022-10-31T17:06:01;16.70;99.90
41985;DHT22;28319;48.116;10.818;2022-10-31T17:11:03;16.60;99.90
41985;DHT22;28319;48.116;10.818;2022-10-31T17:16:06;16.30;99.90
41985;DHT22;28319;48.116;10.818;2022-10-31T17:21:15;16.10;99.90
41985;DHT22;28319;48.116;10.818;2022-10-31T17:26:19;15.90;99.90
41985;DHT22;28319;48.116;10.818;2022-10-31T17:31:22;15.80;99.90
41985;DHT22;28319;48.116;10.818;2022-10-31T17:36:26;15.80;99.90
41985;DHT22;28319;48.116;10.818;2022-10-31T17:41:28;15.70;99.90
41985;DHT22;28319;48.116;10.818;2022-10-31T17:46:30;15.70;99.90
41985;DHT22;28319;48.116;10.818;2022-10-31T17:51:34;15.40;99.90
41985;DHT22;28319;48.116;10.818;2022-10-31T17:56:36;15.40;99.90
41985;DHT22;28319;48.116;10.818;2022-10-31T18:01:37;15.20;99.90
41985;DHT22;28319;48.116;10.818;2022-10-31T18:06:41;15.20;99.90
41985;DHT22;28319;48.116;10.818;2022-10-31T18:11:43;15.20;99.90
41985;DHT22;28319;48.116;10.818;2022-10-31T18:16:45;15.10;99.90
41985;DHT22;28319;48.116;10.818;2022-10-31T18:21:48;14.80;99.90
41985;DHT22;28319;48.116;10.818;2022-10-31T18:26:50;14.70;99.90
41985;DHT22;28319;48.116;10.818;2022-10-31T18:31:53;14.70;99.90
41985;DHT22;28319;48.116;10.818;2022-10-31T18:36:57;14.50;99.90
41985;DHT22;28319;48.116;10.818;2022-10-31T18:41:59;14.40;99.90
41985;DHT22;28319;48.116;10.818;2022-10-31T18:47:01;14.10;99.90
41985;DHT22;28319;48.116;10.818;2022-10-31T18:52:05;14.10;99.90
41985;DHT22;28319;48.116;10.818;2022-10-31T18:57:06;14.10;99.90
41985;DHT22;28319;48.116;10.818;2022-10-31T19:02:09;14.00;99.90
41985;DHT22;28319;48.116;10.818;2022-10-31T19:07:16;13.90;99.90
41985;DHT22;28319;48.116;10.818;2022-10-31T19:12:18;13.70;99.90
41985;DHT22;28319;48.116;10.818;2022-10-31T19:17:21;13.80;99.90
41985;DHT22;28319;48.116;10.818;2022-10-31T19:22:26;13.80;99.90
41985;DHT22;28319;48.116;10.818;2022-10-31T19:27:32;13.70;99.90
41985;DHT22;28319;48.116;10.818;2022-10-31T19:32:34;13.70;99.90
41985;DHT22;28319;48.116;10.818;2022-10-31T19:37:38;13.70;99.90
41985;DHT22;28319;48.116;10.818;2022-10-31T19:42:40;13.70;99.90
41985;DHT22;28319;48.116;10.818;2022-10-31T19:47:42;13.50;99.90
41985;DHT22;28319;48.116;10.818;2022-10-31T19:52:46;13.40;99.90
41985;DHT22;28319;48.116;10.818;2022-10-31T19:57:48;13.10;99.90
41985;DHT22;28319;48.116;10.818;2022-10-31T20:02:50;13.00;99.90
41985;DHT22;28319;48.116;10.818;2022-10-31T20:07:54;13.00;99.90
41985;DHT22;28319;48.116;10.818;2022-10-31T20:12:56;13.00;99.90
41985;DHT22;28319;48.116;10.818;2022-10-31T20:17:58;13.00;99.90
41985;DHT22;28319;48.116;10.818;2022-10-31T20:23:01;13.00;99.90
41985;DHT22;28319;48.116;10.818;2022-10-31T20:28:04;12.90;99.90
41985;DHT22;28319;48.116;10.818;2022-10-31T20:33:06;12.80;99.90
41985;DHT22;28319;48.116;10.818;2022-10-31T20:38:09;12.70;99.90
41985;DHT22;28319;48.116;10.818;2022-10-31T20:43:11;12.70;99.90
41985;DHT22;28319;48.116;10.818;2022-10-31T20:48:14;12.70;99.90
41985;DHT22;28319;48.116;10.818;2022-10-31T20:53:17;12.70;99.90
41985;DHT22;28319;48.116;10.818;2022-10-31T20:58:19;12.70;99.90
41985;DHT22;28319;48.116;10.818;2022-10-31T21:03:22;12.40;99.90
41985;DHT22;28319;48.116;10.818;2022-10-31T21:08:27;12.50;99.90
41985;DHT22;28319;48.116;10.818;2022-10-31T21:13:30;12.50;99.90
41985;DHT22;28319;48.116;10.818;2022-10-31T21:18:37;12.50;99.90
41985;DHT22;28319;48.116;10.818;2022-10-31T21:23:41;12.40;99.90
41985;DHT22;28319;48.116;10.818;2022-10-31T21:28:43;12.30;99.90
41985;DHT22;28319;48.116;10.818;2022-10-31T21:33:46;12.30;99.90
41985;DHT22;28319;48.116;10.818;2022-10-31T21:38:50;12.30;99.90
41985;DHT22;28319;48.116;10.818;2022-10-31T21:43:53;12.30;99.90
41985;DHT22;28319;48.116;10.818;2022-10-31T21:48:56;12.30;99.90
41985;DHT22;28319;48.116;10.818;2022-10-31T21:53:59;12.10;99.90
41985;DHT22;28319;48.116;10.818;2022-10-31T21:59:19;12.10;99.90
41985;DHT22;28319;48.116;10.818;2022-10-31T22:04:21;12.00;99.90
41985;DHT22;28319;48.116;10.818;2022-10-31T22:09:25;11.90;99.90
41985;DHT22;28319;48.116;10.818;2022-10-31T22:14:27;11.90;99.90
41985;DHT22;28319;48.116;10.818;2022-10-31T22:19:29;12.00;99.90
41985;DHT22;28319;48.116;10.818;2022-10-31T22:24:32;11.90;99.90
41985;DHT22;28319;48.116;10.818;2022-10-31T22:29:34;11.90;99.90
41985;DHT22;28319;48.116;10.818;2022-10-31T22:34:37;11.90;99.90
41985;DHT22;28319;48.116;10.818;2022-10-31T22:39:40;12.00;99.90
41985;DHT22;28319;48.116;10.818;2022-10-31T22:44:42;11.90;99.90
41985;DHT22;28319;48.116;10.818;2022-10-31T22:49:44;12.00;99.90
41985;DHT22;28319;48.116;10.818;2022-10-31T22:54:48;11.60;99.90
41985;DHT22;28319;48.116;10.818;2022-10-31T22:59:50;11.50;99.90
41985;DHT22;28319;48.116;10.818;2022-10-31T23:04:52;11.50;99.90
41985;DHT22;28319;48.116;10.818;2022-10-31T23:09:56;11.60;99.90
41985;DHT22;28319;48.116;10.818;2022-10-31T23:14:58;11.60;99.90
41985;DHT22;28319;48.116;10.818;2022-10-31T23:20:02;11.70;99.90
41985;DHT22;28319;48.116;10.818;2022-10-31T23:25:07;11.80;99.90
41985;DHT22;28319;48.116;10.818;2022-10-31T23:30:09;11.90;99.90
41985;DHT22;28319;48.116;10.818;2022-10-31T23:35:11;11.90;99.90
41985;DHT22;28319;48.116;10.818;2022-10-31T23:40:15;11.90;99.90
41985;DHT22;28319;48.116;10.818;2022-10-31T23:45:17;11.80;99.90
41985;DHT22;28319;48.116;10.818;2022-10-31T23:50:19;11.90;99.90
41985;DHT22;28319;48.116;10.818;2022-10-31T23:55:22;11.80;99.90
